Time;durP1;ratioP1;P1;durP2;ratioP2;P2;SDS_P1;SDS_P2;PMS_P1;PMS_P2;Temp;Humidity;BMP_temperature;BMP_pressure;BME280_temperature;BME280_humidity;BME280_pressure;Samples;Min_cycle;Max_cycle;Signal;HPM_P1;HPM_P2
2022/12/15 00:38:44;;;;;;;43.55;17.00;;;-0.20;99.90;;;;;;4902185;29;20051;-78
2022/12/15 00:41:14;;;;;;;35.88;14.98;;;-0.20;99.90;;;;;;4906227;29;20050;-78
2022/12/15 00:43:42;;;;;;;39.78;15.35;;;-0.20;99.90;;;;;;4906845;29;20049;-79
2022/12/15 00:48:56;;;;;;;41.28;15.35;;;-0.20;99.90;;;;;;4915576;29;20052;-79
2022/12/15 01:21:48;;;;;;;31.52;12.38;;;-0.10;99.90;;;;;;4915056;29;20052;-78
2022/12/15 01:24:15;;;;;;;34.53;13.45;;;-0.20;99.90;;;;;;4897198;29;20048;-78
2022/12/15 01:26:42;;;;;;;29.75;12.20;;;-0.20;99.90;;;;;;4905151;29;20051;-78
2022/12/15 01:29:09;;;;;;;30.80;13.63;;;-0.20;99.90;;;;;;4905324;29;20048;-78
2022/12/15 01:31:37;;;;;;;36.58;12.95;;;-0.20;99.90;;;;;;4900632;29;20060;-78
2022/12/15 01:34:04;;;;;;;31.55;13.73;;;-0.20;99.90;;;;;;4903352;29;20049;-78
2022/12/15 01:36:31;;;;;;;34.40;13.30;;;-0.20;99.90;;;;;;4898442;29;20045;-79
2022/12/15 01:38:58;;;;;;;35.42;13.90;;;-0.10;99.90;;;;;;4896500;29;20079;-79
2022/12/15 01:41:25;;;;;;;29.02;13.52;;;-0.10;99.90;;;;;;4919038;29;20105;-79
2022/12/15 01:43:52;;;;;;;35.00;13.00;;;-0.10;99.90;;;;;;4895165;29;20067;-78
2022/12/15 01:46:22;;;;;;;37.60;14.27;;;-0.10;99.90;;;;;;4900858;29;20078;-78
2022/12/15 01:49:13;;;;;;;38.67;15.05;;;-0.10;99.90;;;;;;4885795;29;20062;-78
2022/12/15 01:51:46;;;;;;;36.25;14.98;;;-0.10;99.90;;;;;;4877702;29;20148;-78
2022/12/15 01:54:21;;;;;;;30.40;12.60;;;-0.10;99.90;;;;;;4897064;29;20484;-78
2022/12/15 01:56:53;;;;;;;34.30;13.35;;;-0.10;99.90;;;;;;4896942;29;20044;-78
2022/12/15 01:59:26;;;;;;;40.80;14.20;;;-0.10;99.90;;;;;;4887036;29;20048;-78
2022/12/15 02:01:52;;;;;;;;;;;-0.10;99.90;;;;;;4901394;29;20041;-78
2022/12/15 02:04:22;;;;;;;39.92;15.20;;;-0.10;99.90;;;;;;4889689;29;19930;-78
2022/12/15 02:06:49;;;;;;;46.10;18.95;;;-0.10;99.90;;;;;;4900782;29;20064;-78
2022/12/15 02:09:18;;;;;;;66.43;27.13;;;-0.10;99.90;;;;;;4914321;29;20045;-78
2022/12/15 02:11:56;;;;;;;51.10;23.08;;;-0.10;99.90;;;;;;4911738;29;20146;-79
2022/12/15 02:14:35;;;;;;;53.88;21.85;;;-0.10;99.90;;;;;;4881253;29;20057;-78
2022/12/15 02:17:09;;;;;;;47.47;19.15;;;-0.10;99.90;;;;;;4898807;29;20108;-78
2022/12/15 02:19:51;;;;;;;43.20;16.55;;;-0.10;99.90;;;;;;4921385;29;20048;-78
2022/12/15 02:22:39;;;;;;;35.00;15.20;;;-0.10;99.90;;;;;;4890324;29;20076;-78
2022/12/15 02:25:21;;;;;;;31.65;14.07;;;-0.10;99.90;;;;;;4922619;29;20389;-79
2022/12/15 02:28:12;;;;;;;35.85;15.40;;;-0.10;99.90;;;;;;4902912;29;20056;-79
2022/12/15 02:34:42;;;;;;;46.78;17.13;;;-0.10;99.90;;;;;;4922168;29;20135;-79
2022/12/15 02:37:29;;;;;;;38.67;15.18;;;-0.10;99.90;;;;;;4910590;29;20059;-79
2022/12/15 02:39:56;;;;;;;33.97;13.65;;;-0.10;99.90;;;;;;4900565;29;20732;-78
2022/12/15 02:42:25;;;;;;;39.08;13.75;;;0.00;99.90;;;;;;4917048;29;20040;-79
2022/12/15 02:45:03;;;;;;;35.72;13.82;;;0.00;99.90;;;;;;4913369;29;20686;-79
2022/12/15 02:47:59;;;;;;;34.88;13.95;;;0.00;99.90;;;;;;4884485;29;20060;-79
2022/12/15 02:50:52;;;;;;;38.63;15.52;;;0.00;99.90;;;;;;4876598;29;20115;-79
2022/12/15 02:53:32;;;;;;;37.70;13.95;;;0.00;99.90;;;;;;4904309;29;20060;-79
2022/12/15 02:56:18;;;;;;;43.60;16.58;;;0.00;99.90;;;;;;4904446;29;20056;-78
2022/12/15 02:58:53;;;;;;;38.25;14.65;;;0.00;99.90;;;;;;4899777;29;20058;-78
2022/12/15 03:01:29;;;;;;;36.58;15.38;;;0.00;99.90;;;;;;4902771;29;20370;-78
2022/12/15 03:03:58;;;;;;;41.72;15.88;;;0.00;99.90;;;;;;4916832;29;20055;-78
2022/12/15 03:06:27;;;;;;;42.92;16.25;;;0.00;99.90;;;;;;4896559;29;20088;-78
2022/12/15 03:08:54;;;;;;;40.55;15.57;;;0.00;99.90;;;;;;4915959;29;20044;-78
2022/12/15 03:11:21;;;;;;;37.88;15.27;;;0.00;99.90;;;;;;4883765;29;20052;-78
2022/12/15 03:13:49;;;;;;;37.25;15.02;;;0.00;99.90;;;;;;4899080;29;20636;-78
2022/12/15 03:16:16;;;;;;;38.42;15.98;;;0.00;99.90;;;;;;4912249;29;20052;-79
2022/12/15 03:18:43;;;;;;;42.72;16.75;;;0.00;99.90;;;;;;4885734;29;20078;-79
2022/12/15 03:21:10;;;;;;;44.38;17.98;;;0.00;99.90;;;;;;4913186;29;20044;-79
2022/12/15 03:23:37;;;;;;;39.88;15.30;;;0.00;99.90;;;;;;4900496;29;20769;-79
2022/12/15 03:26:05;;;;;;;36.90;15.52;;;0.00;99.90;;;;;;4913423;29;20436;-79
2022/12/15 03:28:33;;;;;;;37.00;15.20;;;0.00;99.90;;;;;;4902437;29;20052;-79
2022/12/15 03:31:00;;;;;;;35.95;14.63;;;-0.10;99.90;;;;;;4897655;29;20040;-79
2022/12/15 03:33:27;;;;;;;42.78;15.30;;;0.00;99.90;;;;;;4911278;29;20045;-79
2022/12/15 03:35:54;;;;;;;36.78;15.23;;;0.00;99.90;;;;;;4898478;29;20048;-79
2022/12/15 03:38:22;;;;;;;43.55;15.25;;;0.00;99.90;;;;;;4886472;29;20044;-79
2022/12/15 03:40:49;;;;;;;40.63;15.45;;;0.00;99.90;;;;;;4883826;29;20057;-78
2022/12/15 03:43:16;;;;;;;38.80;15.40;;;0.00;99.90;;;;;;4917079;29;20055;-78
2022/12/15 03:45:44;;;;;;;36.25;13.95;;;0.00;99.90;;;;;;4911782;29;20041;-79
2022/12/15 03:48:11;;;;;;;39.25;14.60;;;0.00;99.90;;;;;;4887625;29;20076;-79
2022/12/15 03:50:38;;;;;;;35.17;13.38;;;0.00;99.90;;;;;;4898616;29;20064;-79
2022/12/15 03:53:05;;;;;;;32.28;13.55;;;0.00;99.90;;;;;;4900172;29;20076;-79
2022/12/15 03:55:34;;;;;;;36.42;14.50;;;0.00;99.90;;;;;;4882501;29;20112;-79
2022/12/15 03:58:01;;;;;;;33.22;13.02;;;0.00;99.90;;;;;;4896435;29;20040;-78
2022/12/15 04:00:29;;;;;;;37.10;15.35;;;0.00;99.90;;;;;;4884449;29;20044;-78
2022/12/15 04:02:56;;;;;;;38.55;14.57;;;0.00;99.90;;;;;;4895605;29;21005;-78
2022/12/15 04:05:29;;;;;;;37.30;14.13;;;0.00;99.90;;;;;;4896230;29;20087;-78
2022/12/15 04:07:58;;;;;;;37.65;15.32;;;0.00;99.90;;;;;;4892150;29;20274;-78
2022/12/15 04:10:26;;;;;;;37.63;16.40;;;0.00;99.90;;;;;;4878758;29;20044;-78
2022/12/15 04:13:02;;;;;;;38.80;13.52;;;0.00;99.90;;;;;;4912457;29;20076;-78
2022/12/15 04:15:29;;;;;;;34.85;14.18;;;0.00;99.90;;;;;;4903725;29;20068;-78
2022/12/15 04:17:57;;;;;;;39.08;15.52;;;-0.10;99.90;;;;;;4892782;29;20059;-78
2022/12/15 04:20:24;;;;;;;37.40;14.65;;;-0.10;99.90;;;;;;4893644;29;20049;-78
2022/12/15 04:22:51;;;;;;;39.38;15.63;;;-0.10;99.90;;;;;;4874790;29;20088;-78
2022/12/15 05:32:10;;;;;;;41.65;17.13;;;-0.20;99.90;;;;;;4908122;29;20068;-78
2022/12/15 05:34:37;;;;;;;42.75;16.15;;;-0.10;99.90;;;;;;4894945;29;20048;-78
2022/12/15 05:37:06;;;;;;;36.20;14.35;;;-0.10;99.90;;;;;;4896546;29;20524;-78
2022/12/15 05:39:34;;;;;;;39.50;15.75;;;0.00;99.90;;;;;;4892319;29;20057;-78
2022/12/15 05:42:01;;;;;;;40.22;15.27;;;0.00;99.90;;;;;;4906834;29;20044;-78
2022/12/15 05:44:28;;;;;;;39.60;14.63;;;-0.10;99.90;;;;;;4886378;29;20048;-78
2022/12/15 05:46:55;;;;;;;39.85;16.27;;;0.00;99.90;;;;;;4907609;29;20077;-78
2022/12/15 05:49:22;;;;;;;39.03;15.60;;;0.00;99.90;;;;;;4889127;29;20044;-78
2022/12/15 05:51:49;;;;;;;41.88;17.05;;;-0.10;99.90;;;;;;4892675;29;20057;-78
2022/12/15 05:54:18;;;;;;;45.75;16.65;;;0.00;99.90;;;;;;4880807;29;20040;-78
2022/12/15 05:56:47;;;;;;;40.45;16.83;;;0.00;99.90;;;;;;4877558;29;20055;-78
2022/12/15 05:59:17;;;;;;;43.30;16.67;;;0.00;99.90;;;;;;4891480;29;20132;-78
2022/12/15 06:01:48;;;;;;;45.20;17.20;;;0.00;99.90;;;;;;4886456;29;20056;-78
2022/12/15 06:04:18;;;;;;;42.83;16.50;;;0.00;99.90;;;;;;4879248;29;20404;-78
2022/12/15 06:06:45;;;;;;;41.47;16.33;;;0.00;99.90;;;;;;4889556;29;20065;-78
2022/12/15 06:09:12;;;;;;;41.22;16.02;;;0.00;99.90;;;;;;4886414;29;20104;-78
2022/12/15 06:11:40;;;;;;;40.97;16.30;;;0.00;99.90;;;;;;4893840;29;20067;-78
2022/12/15 06:14:08;;;;;;;39.65;15.68;;;0.00;99.90;;;;;;4873899;29;20587;-78
2022/12/15 06:16:35;;;;;;;42.20;15.93;;;0.00;99.90;;;;;;4893149;29;20043;-78
2022/12/15 06:19:15;;;;;;;40.00;14.93;;;0.00;99.90;;;;;;4895661;29;20089;-78
2022/12/15 06:21:42;;;;;;;37.80;15.23;;;0.00;99.90;;;;;;4882419;29;20052;-78
2022/12/15 06:24:09;;;;;;;42.28;15.38;;;0.00;99.90;;;;;;4911422;29;20436;-78
2022/12/15 06:26:38;;;;;;;41.15;16.33;;;0.00;99.90;;;;;;4908593;29;20072;-78
2022/12/15 06:29:07;;;;;;;38.58;14.60;;;0.00;99.90;;;;;;4875060;29;20051;-78
2022/12/15 06:31:35;;;;;;;38.58;14.43;;;0.00;99.90;;;;;;4907786;29;20068;-78
2022/12/15 06:34:08;;;;;;;34.67;14.13;;;0.00;99.90;;;;;;4897258;29;20060;-79
2022/12/15 06:36:35;;;;;;;38.65;14.75;;;0.00;99.90;;;;;;4877327;29;20067;-79
2022/12/15 06:39:05;;;;;;;47.30;18.15;;;0.00;99.90;;;;;;4895251;29;20412;-78
2022/12/15 06:41:32;;;;;;;44.10;15.85;;;0.10;99.90;;;;;;4910351;29;20051;-78
2022/12/15 06:43:59;;;;;;;52.33;19.65;;;0.10;99.90;;;;;;4887031;29;20193;-78
2022/12/15 06:46:29;;;;;;;45.80;16.50;;;0.10;99.90;;;;;;4891279;29;20044;-78
2022/12/15 06:48:57;;;;;;;42.88;17.00;;;0.10;99.90;;;;;;4898624;29;20052;-79
2022/12/15 06:51:25;;;;;;;47.38;17.65;;;0.10;99.90;;;;;;4893307;29;20145;-78
2022/12/15 06:53:55;;;;;;;44.17;17.00;;;0.10;99.90;;;;;;4892819;29;20063;-78
2022/12/15 06:56:27;;;;;;;44.65;17.95;;;0.10;99.90;;;;;;4896058;29;20068;-79
2022/12/15 06:59:00;;;;;;;50.28;19.38;;;0.10;99.90;;;;;;4891611;29;20258;-79
2022/12/15 09:31:32;;;;;;;47.05;18.52;;;1.40;99.90;;;;;;4754371;30;20054;-77
2022/12/15 09:34:00;;;;;;;47.42;17.80;;;1.40;99.90;;;;;;4756492;30;20055;-77
2022/12/15 10:22:50;;;;;;;47.03;18.33;;;1.60;99.90;;;;;;4556342;24;20317;-86
2022/12/15 12:03:57;;;;;;;75.78;25.70;;;2.30;99.90;;;;;;4757512;30;20091;-80
2022/12/15 12:06:33;;;;;;;72.05;24.85;;;2.30;99.90;;;;;;4768150;30;20059;-80
2022/12/15 12:09:23;;;;;;;64.30;23.60;;;2.30;99.90;;;;;;4757644;30;20055;-80
2022/12/15 12:12:18;;;;;;;57.70;21.33;;;2.30;99.90;;;;;;4763319;30;20104;-80
2022/12/15 12:15:24;;;;;;;76.82;25.58;;;2.30;99.90;;;;;;4755437;30;20487;-80
2022/12/15 12:17:54;;;;;;;68.85;23.10;;;2.40;99.90;;;;;;4759022;30;20059;-80
2022/12/15 12:20:40;;;;;;;70.10;24.75;;;2.40;99.90;;;;;;4750896;30;20060;-80
2022/12/15 12:23:26;;;;;;;70.35;23.23;;;2.40;99.90;;;;;;4739342;30;20080;-80
2022/12/15 12:26:23;;;;;;;64.07;23.75;;;2.40;99.90;;;;;;4753165;30;20045;-80
2022/12/15 12:29:18;;;;;;;67.90;25.33;;;2.40;99.90;;;;;;4751328;30;20079;-80
2022/12/15 12:32:00;;;;;;;64.97;22.80;;;2.40;99.90;;;;;;4754063;30;20053;-80
2022/12/15 12:34:55;;;;;;;59.60;23.25;;;2.40;99.90;;;;;;4757048;30;20049;-80
2022/12/15 12:38:01;;;;;;;57.80;20.50;;;2.40;99.90;;;;;;4760990;30;20049;-80
2022/12/15 13:02:26;;;;;;;70.13;23.35;;;2.30;99.90;;;;;;3373090;24;20327;-84
2022/12/15 13:55:20;;;;;;;80.68;26.58;;;2.20;99.90;;;;;;4800865;24;20048;-87
2022/12/15 13:58:38;;;;;;;76.22;26.42;;;2.20;99.90;;;;;;4735053;30;20111;-88
2022/12/15 14:26:20;;;;;;;95.00;32.78;;;2.10;99.90;;;;;;4799161;29;20058;-87
2022/12/15 14:33:18;;;;;;;105.93;34.53;;;2.10;99.90;;;;;;4773407;29;20123;-88
2022/12/15 14:41:09;;;;;;;101.10;32.53;;;1.80;99.90;;;;;;4701115;30;20049;-88
2022/12/15 14:44:45;;;;;;;398.48;124.38;;;2.20;99.90;;;;;;4819863;24;20067;-87
2022/12/15 14:48:21;;;;;;;203.38;66.85;;;2.00;99.90;;;;;;4764944;30;20107;-87
2022/12/15 15:30:03;;;;;;;70.45;25.25;;;2.00;99.90;;;;;;4814070;24;20064;-86
2022/12/15 15:33:01;;;;;;;59.83;20.70;;;2.00;99.90;;;;;;4756422;30;20243;-87
2022/12/15 15:53:03;;;;;;;66.50;20.45;;;2.00;99.90;;;;;;4751510;30;20060;-88
2022/12/15 15:56:17;;;;;;;58.20;20.60;;;1.40;99.90;;;;;;4737459;30;20071;-87
2022/12/15 15:59:09;;;;;;;;;;;0.80;99.90;;;;;;4678587;30;20113;-87
2022/12/15 16:06:23;;;;;;;68.43;23.20;;;2.00;99.90;;;;;;4829687;24;20152;-86
2022/12/15 16:13:43;;;;;;;105.43;32.60;;;2.00;99.90;;;;;;4802088;29;20065;-87
2022/12/15 16:32:00;;;;;;;89.25;31.45;;;2.00;99.90;;;;;;4811663;29;20188;-87
2022/12/15 16:34:36;;;;;;;75.53;27.80;;;2.90;99.90;;;;;;4749304;30;20052;-87
2022/12/15 16:37:50;;;;;;;65.72;24.95;;;1.90;99.90;;;;;;4758162;30;20063;-87
2022/12/15 16:41:05;;;;;;;89.95;36.45;;;1.80;99.90;;;;;;4752098;30;20054;-87
2022/12/15 16:48:41;;;;;;;67.75;20.10;;;2.10;99.90;;;;;;5545976;24;20074;-86
2022/12/15 16:59:22;;;;;;;69.05;21.55;;;1.90;99.90;;;;;;4788554;30;20079;-86
2022/12/15 17:03:37;;;;;;;;;;;1.90;99.90;;;;;;4735969;30;20094;-87
2022/12/15 17:06:15;;;;;;;51.35;17.88;;;1.90;99.90;;;;;;4722843;30;19926;-86
2022/12/15 17:12:29;;;;;;;73.88;22.60;;;1.80;99.90;;;;;;4831344;24;20057;-87
2022/12/15 17:23:55;;;;;;;75.28;23.80;;;1.70;99.90;;;;;;4805218;30;20076;-86
2022/12/15 17:30:24;;;;;;;75.72;26.55;;;1.80;99.90;;;;;;4880576;24;20050;-87
2022/12/15 17:33:38;;;;;;;63.28;23.42;;;1.60;99.90;;;;;;4716121;30;20069;-87
2022/12/15 17:44:56;;;;;;;70.13;23.55;;;1.80;99.90;;;;;;4809033;29;20046;-88
2022/12/15 18:19:09;;;;;;;59.78;20.00;;;1.80;99.90;;;;;;4823661;29;20107;-88
2022/12/15 18:22:05;;;;;;;52.50;19.08;;;0.70;99.90;;;;;;4796975;29;20070;-87
2022/12/15 18:25:43;;;;;;;56.45;19.85;;;1.80;99.90;;;;;;4769179;30;20036;-87
2022/12/15 18:53:50;;;;;;;43.28;14.75;;;1.80;99.90;;;;;;4785816;29;20056;-87
2022/12/15 19:11:33;;;;;;;47.40;18.52;;;1.80;99.90;;;;;;4885876;24;20151;-86
2022/12/15 19:14:52;;;;;;;49.25;18.77;;;1.90;99.90;;;;;;4764672;30;20084;-87
2022/12/15 21:15:34;;;;;;;29.52;10.63;;;1.80;99.90;;;;;;4759346;30;20091;-79
2022/12/15 21:18:01;;;;;;;20.15;9.02;;;1.80;99.90;;;;;;4753412;30;20146;-80
2022/12/15 21:20:55;;;;;;;29.20;11.63;;;1.80;99.90;;;;;;4748850;30;20055;-79
2022/12/15 21:23:28;;;;;;;29.80;12.32;;;1.80;99.90;;;;;;4775367;29;20047;-79
2022/12/15 21:25:57;;;;;;;31.83;13.02;;;1.80;99.90;;;;;;4773426;30;20075;-80
2022/12/15 21:28:24;;;;;;;30.20;10.55;;;1.80;99.90;;;;;;4745304;30;20054;-80
2022/12/15 21:30:52;;;;;;;38.83;12.85;;;1.80;99.90;;;;;;4746184;30;20052;-79
2022/12/15 21:33:19;;;;;;;36.42;12.52;;;1.70;99.90;;;;;;4744802;30;20118;-80
2022/12/15 21:35:47;;;;;;;38.97;13.60;;;1.80;99.90;;;;;;4759559;30;20055;-79
2022/12/15 21:38:25;;;;;;;31.33;11.35;;;1.80;99.90;;;;;;4749366;30;20050;-80
2022/12/15 21:40:55;;;;;;;30.95;11.05;;;1.80;99.90;;;;;;4755972;30;20044;-79
2022/12/15 21:43:26;;;;;;;;;;;1.80;99.90;;;;;;4774350;30;20058;-79
2022/12/15 21:45:53;;;;;;;35.70;11.85;;;1.80;99.90;;;;;;4760831;30;19937;-79
2022/12/15 21:51:17;;;;;;;30.05;12.45;;;1.80;99.90;;;;;;4774271;30;20085;-80
2022/12/15 21:53:46;;;;;;;37.05;15.07;;;1.70;99.90;;;;;;4780674;30;20052;-80
2022/12/15 21:56:17;;;;;;;33.00;12.98;;;1.70;99.90;;;;;;4760217;30;20141;-80
2022/12/15 21:58:47;;;;;;;45.53;16.30;;;1.70;99.90;;;;;;4762376;30;20048;-80
2022/12/15 22:01:19;;;;;;;38.42;13.18;;;1.70;99.90;;;;;;4738581;30;20058;-79
2022/12/15 22:03:52;;;;;;;47.63;15.23;;;1.70;99.90;;;;;;4758168;30;20071;-79
2022/12/15 22:06:26;;;;;;;44.30;14.68;;;1.70;99.90;;;;;;4765475;30;20135;-79
2022/12/15 22:08:57;;;;;;;37.90;12.98;;;1.70;99.90;;;;;;4756320;30;20051;-79
2022/12/15 22:11:29;;;;;;;42.05;16.05;;;1.70;99.90;;;;;;4763347;30;20079;-80
2022/12/15 22:13:59;;;;;;;49.75;16.65;;;1.70;99.90;;;;;;4770380;30;20063;-80
2022/12/15 22:16:28;;;;;;;50.50;17.02;;;1.70;99.90;;;;;;4755879;30;20052;-80
2022/12/15 22:18:58;;;;;;;36.42;13.85;;;1.70;99.90;;;;;;4742662;30;20060;-80
2022/12/15 22:21:26;;;;;;;50.50;17.02;;;1.70;99.90;;;;;;4741175;30;20044;-80
2022/12/15 22:23:53;;;;;;;49.05;16.85;;;1.70;99.90;;;;;;4724497;30;20057;-79
2022/12/15 22:26:24;;;;;;;48.13;16.27;;;1.70;99.90;;;;;;4727524;30;20082;-79
2022/12/15 22:28:53;;;;;;;45.05;16.65;;;1.70;99.90;;;;;;4727438;30;20052;-80
2022/12/15 22:31:21;;;;;;;39.13;13.32;;;1.80;99.90;;;;;;4729299;30;20072;-80
2022/12/15 22:33:48;;;;;;;43.22;14.20;;;1.80;99.90;;;;;;4721699;30;20049;-80
2022/12/15 22:36:15;;;;;;;51.35;15.57;;;1.80;99.90;;;;;;4732297;30;20055;-80
2022/12/15 22:38:43;;;;;;;49.35;14.88;;;1.80;99.90;;;;;;4739155;30;20051;-80
2022/12/15 22:41:18;;;;;;;41.53;13.32;;;1.80;99.90;;;;;;4741062;30;20048;-80
2022/12/15 22:43:49;;;;;;;43.35;14.30;;;1.80;99.90;;;;;;4725004;30;20094;-80
2022/12/15 22:46:17;;;;;;;37.50;13.98;;;1.80;99.90;;;;;;4721729;30;20423;-80
2022/12/15 22:48:48;;;;;;;36.58;12.63;;;1.80;99.90;;;;;;4710362;30;20061;-80
2022/12/15 22:51:18;;;;;;;42.15;13.32;;;1.80;99.90;;;;;;4739669;30;20048;-80
2022/12/15 22:53:45;;;;;;;42.13;13.07;;;1.80;99.90;;;;;;4728231;30;20110;-80
2022/12/15 22:56:35;;;;;;;35.30;12.27;;;1.80;99.90;;;;;;4713010;30;20052;-79
2022/12/15 22:59:09;;;;;;;43.15;13.15;;;1.80;99.90;;;;;;4723462;30;20049;-79
2022/12/15 23:01:36;;;;;;;34.03;10.35;;;1.80;99.90;;;;;;4725579;30;20182;-80
2022/12/15 23:04:04;;;;;;;40.47;13.32;;;1.80;99.90;;;;;;4775530;30;20083;-79
2022/12/15 23:06:32;;;;;;;38.70;13.45;;;1.80;99.90;;;;;;4781241;30;20053;-79
2022/12/15 23:08:59;;;;;;;39.83;13.35;;;1.80;99.90;;;;;;4747933;30;20055;-79
2022/12/15 23:11:38;;;;;;;35.60;11.27;;;1.80;99.90;;;;;;4742920;30;20081;-79
2022/12/15 23:14:08;;;;;;;35.35;11.35;;;1.80;99.90;;;;;;4742178;30;20573;-79
2022/12/15 23:16:36;;;;;;;35.50;12.18;;;1.90;99.90;;;;;;4765488;30;20074;-80
2022/12/15 23:19:06;;;;;;;43.53;12.73;;;1.90;99.90;;;;;;4759089;30;20532;-80
2022/12/15 23:21:34;;;;;;;34.83;10.52;;;1.80;99.90;;;;;;4773252;30;20060;-80
2022/12/15 23:56:33;;;;;;;30.38;9.20;;;1.90;99.90;;;;;;2109102;24;20342;-85
